Time;durP1;ratioP1;P1;durP2;ratioP2;P2;SDS_P1;SDS_P2;PMS_P1;PMS_P2;Temp;Humidity;BMP_temperature;BMP_pressure;BME280_temperature;BME280_humidity;BME280_pressure;Samples;Min_cycle;Max_cycle;Signal;HPM_P1;HPM_P2
2023/01/07 00:01:25;;;;;;;165.23;42.85;;;8.20;99.90;;;;;;4994419;28;20077;-85
2023/01/07 00:03:52;;;;;;;163.82;40.40;;;8.30;99.90;;;;;;4994621;28;20513;-85
2023/01/07 00:06:23;;;;;;;167.30;40.63;;;8.20;99.90;;;;;;4994692;28;20055;-85
2023/01/07 00:08:50;;;;;;;185.32;43.78;;;8.30;99.90;;;;;;4994713;28;20046;-85
2023/01/07 00:11:21;;;;;;;168.30;41.42;;;8.40;99.90;;;;;;4994369;28;20113;-85
2023/01/07 00:13:49;;;;;;;182.68;43.17;;;8.30;99.90;;;;;;4994449;28;20049;-86
2023/01/07 00:16:17;;;;;;;187.82;44.40;;;8.50;99.90;;;;;;4994422;28;20126;-85
2023/01/07 00:18:46;;;;;;;197.75;44.72;;;8.60;99.90;;;;;;4994489;28;20625;-86
2023/01/07 00:21:14;;;;;;;203.98;43.88;;;8.60;99.90;;;;;;4994131;28;20487;-86
2023/01/07 00:23:42;;;;;;;172.65;40.50;;;8.70;99.90;;;;;;4994017;28;20513;-86
2023/01/07 00:26:09;;;;;;;194.00;42.83;;;8.80;99.90;;;;;;4994110;28;20054;-86
2023/01/07 00:28:37;;;;;;;194.00;44.63;;;8.80;99.90;;;;;;4993970;28;20046;-86
2023/01/07 00:31:12;;;;;;;202.75;43.47;;;8.80;99.90;;;;;;4993865;28;20150;-86
2023/01/07 00:34:05;;;;;;;193.52;44.95;;;9.00;99.90;;;;;;4993931;28;20046;-86
2023/01/07 00:36:40;;;;;;;174.25;42.35;;;9.00;99.90;;;;;;4993693;28;20053;-86
2023/01/07 00:39:13;;;;;;;175.82;41.15;;;9.00;99.90;;;;;;4993745;28;20084;-86
2023/01/07 00:41:39;;;;;;;191.30;45.70;;;9.00;99.90;;;;;;4993771;28;20092;-86
2023/01/07 00:44:06;;;;;;;180.40;43.55;;;9.10;99.90;;;;;;4993178;28;20137;-86
2023/01/07 00:46:32;;;;;;;187.40;42.72;;;9.10;99.90;;;;;;4993762;28;20172;-86
2023/01/07 00:48:58;;;;;;;192.93;46.10;;;9.20;99.90;;;;;;4993949;28;20137;-86
2023/01/07 00:51:24;;;;;;;171.88;39.45;;;9.10;99.90;;;;;;4993467;28;20057;-86
2023/01/07 00:53:49;;;;;;;192.85;45.70;;;9.10;99.90;;;;;;4993500;28;20038;-85
2023/01/07 00:56:17;;;;;;;195.60;42.05;;;9.20;99.90;;;;;;4994771;28;20043;-86
2023/01/07 00:58:43;;;;;;;187.85;40.42;;;9.20;99.90;;;;;;4993736;28;20042;-86
2023/01/07 01:01:10;;;;;;;178.13;39.65;;;9.20;99.90;;;;;;4993559;28;20053;-86
2023/01/07 01:03:36;;;;;;;174.95;36.60;;;9.30;99.90;;;;;;4993735;28;20053;-86
2023/01/07 01:06:04;;;;;;;169.65;35.22;;;9.30;99.90;;;;;;4994495;28;20046;-86
2023/01/07 01:08:29;;;;;;;173.52;38.58;;;9.40;99.90;;;;;;4993346;28;20046;-86
2023/01/07 01:10:55;;;;;;;158.00;36.58;;;9.30;99.90;;;;;;4993230;28;20061;-86
2023/01/07 01:13:21;;;;;;;167.85;37.83;;;9.40;99.90;;;;;;4993538;28;20121;-85
2023/01/07 01:15:47;;;;;;;168.10;35.95;;;9.40;99.90;;;;;;4993328;28;20038;-85
2023/01/07 01:18:14;;;;;;;135.70;31.65;;;9.40;99.90;;;;;;4993700;28;20096;-86
2023/01/07 01:20:40;;;;;;;133.07;31.88;;;9.50;99.90;;;;;;4993103;28;20046;-85
2023/01/07 01:23:07;;;;;;;149.70;33.83;;;9.50;99.90;;;;;;4992415;28;20058;-85
2023/01/07 01:25:33;;;;;;;130.27;30.45;;;9.50;99.90;;;;;;4993172;28;20050;-85
2023/01/07 01:27:58;;;;;;;140.80;31.13;;;9.60;99.90;;;;;;4993129;28;20088;-85
2023/01/07 01:30:24;;;;;;;134.77;31.20;;;9.60;99.90;;;;;;4993075;28;20093;-85
2023/01/07 01:32:50;;;;;;;131.52;30.75;;;9.60;99.90;;;;;;4993253;28;20057;-85
2023/01/07 01:35:16;;;;;;;133.60;31.38;;;9.60;99.90;;;;;;4992988;28;20505;-85
2023/01/07 01:37:41;;;;;;;137.07;31.85;;;9.70;99.90;;;;;;4992943;28;20046;-85
2023/01/07 01:40:09;;;;;;;138.45;33.75;;;9.70;99.90;;;;;;4993012;28;20049;-86
2023/01/07 01:42:35;;;;;;;132.82;31.92;;;9.70;99.90;;;;;;4993254;28;20050;-86
2023/01/07 01:45:01;;;;;;;127.25;31.95;;;9.80;99.90;;;;;;4993011;28;20061;-86
2023/01/07 01:47:47;;;;;;;132.02;33.78;;;9.70;99.90;;;;;;4993196;28;20053;-86
2023/01/07 01:50:35;;;;;;;122.22;29.58;;;9.70;99.90;;;;;;4992787;28;20395;-86
2023/01/07 01:53:12;;;;;;;130.32;31.80;;;9.80;99.90;;;;;;4994175;28;20046;-86
2023/01/07 01:55:42;;;;;;;129.43;34.00;;;9.80;99.90;;;;;;4992874;28;20114;-86
2023/01/07 01:58:23;;;;;;;132.93;34.97;;;9.80;99.90;;;;;;4992941;28;20046;-86
2023/01/07 02:00:49;;;;;;;142.02;37.03;;;9.80;99.90;;;;;;4993048;28;20046;-86
2023/01/07 02:03:18;;;;;;;132.65;37.05;;;9.90;99.90;;;;;;4994014;28;20058;-86
2023/01/07 02:05:45;;;;;;;140.27;35.85;;;9.90;99.90;;;;;;4992792;28;20055;-85
2023/01/07 02:08:11;;;;;;;125.10;33.28;;;10.00;99.90;;;;;;4992878;28;20483;-86
2023/01/07 02:10:38;;;;;;;145.30;36.42;;;9.90;99.90;;;;;;4992671;28;20525;-86
2023/01/07 02:13:17;;;;;;;129.15;36.05;;;9.90;99.90;;;;;;4992814;28;20048;-86
2023/01/07 02:16:02;;;;;;;127.28;34.90;;;9.90;99.90;;;;;;4993359;28;20081;-86
2023/01/07 02:19:03;;;;;;;136.02;37.35;;;10.00;99.90;;;;;;4992672;28;20062;-86
2023/01/07 02:21:50;;;;;;;101.28;29.30;;;9.90;99.90;;;;;;4992628;28;20089;-85
2023/01/07 02:25:27;;;;;;;121.10;38.63;;;10.00;99.90;;;;;;4992447;28;20054;-86
2023/01/07 02:27:55;;;;;;;127.45;38.95;;;10.00;99.90;;;;;;4897308;29;20444;-86
2023/01/07 02:30:49;;;;;;;121.85;37.45;;;10.10;99.90;;;;;;4918209;29;20094;-86
2023/01/07 02:33:36;;;;;;;108.65;33.58;;;10.10;99.90;;;;;;4984576;28;20482;-86
2023/01/07 02:36:10;;;;;;;107.72;36.42;;;10.00;99.90;;;;;;4995431;28;20478;-86
2023/01/07 02:38:55;;;;;;;118.15;37.60;;;10.10;99.90;;;;;;4996135;28;20054;-86
2023/01/07 02:41:33;;;;;;;118.85;36.80;;;10.20;99.90;;;;;;4996392;28;20046;-86
2023/01/07 02:44:24;;;;;;;116.88;35.50;;;10.00;99.90;;;;;;4996147;28;20114;-86
2023/01/07 02:46:59;;;;;;;108.60;37.15;;;10.20;99.90;;;;;;4995998;28;20053;-86
2023/01/07 02:49:25;;;;;;;116.63;36.83;;;10.10;99.90;;;;;;4996259;28;20054;-86
2023/01/07 02:51:51;;;;;;;127.30;37.72;;;10.10;99.90;;;;;;4995932;28;20379;-86
2023/01/07 02:54:25;;;;;;;121.43;37.13;;;10.20;99.90;;;;;;4996215;28;20497;-86
2023/01/07 02:57:16;;;;;;;114.40;36.30;;;10.10;99.90;;;;;;4996939;28;20093;-86
2023/01/07 03:00:06;;;;;;;124.80;39.22;;;10.10;99.90;;;;;;4996035;28;20046;-86
2023/01/07 03:02:35;;;;;;;103.30;32.47;;;10.10;99.90;;;;;;4995622;28;20046;-86
2023/01/07 03:05:06;;;;;;;118.50;38.20;;;10.20;99.90;;;;;;4996595;28;20125;-86
2023/01/07 03:07:50;;;;;;;123.43;39.55;;;10.10;99.90;;;;;;4995615;28;20050;-86
2023/01/07 03:10:30;;;;;;;121.25;38.83;;;10.10;99.90;;;;;;4995559;28;20048;-85
2023/01/07 03:13:02;;;;;;;112.10;35.85;;;10.10;99.90;;;;;;4995589;28;20464;-85
2023/01/07 03:15:36;;;;;;;116.57;38.23;;;10.10;99.90;;;;;;4995343;28;20042;-86
2023/01/07 03:18:07;;;;;;;125.10;39.65;;;10.10;99.90;;;;;;4995421;28;20050;-86
2023/01/07 03:20:37;;;;;;;107.97;36.95;;;10.10;99.90;;;;;;4995244;28;20046;-86
2023/01/07 03:23:10;;;;;;;120.43;38.35;;;10.20;99.90;;;;;;4995205;28;20074;-86
2023/01/07 03:25:40;;;;;;;110.32;39.60;;;10.00;99.90;;;;;;4995144;28;20046;-86
2023/01/07 03:28:08;;;;;;;116.18;38.03;;;10.20;99.90;;;;;;4995501;28;20042;-86
2023/01/07 03:30:35;;;;;;;120.18;37.63;;;10.10;99.90;;;;;;4995279;28;20045;-86
2023/01/07 03:33:25;;;;;;;118.63;37.63;;;10.10;99.90;;;;;;4995429;28;20058;-86
2023/01/07 03:35:54;;;;;;;118.82;40.40;;;10.00;99.90;;;;;;4995186;28;20043;-86
2023/01/07 03:38:22;;;;;;;109.95;36.90;;;10.00;99.90;;;;;;4995195;28;20056;-86
2023/01/07 03:40:48;;;;;;;106.10;34.53;;;10.00;99.90;;;;;;4994925;28;20520;-86
2023/01/07 03:43:18;;;;;;;107.63;36.78;;;10.00;99.90;;;;;;4996297;28;20070;-86
2023/01/07 03:45:45;;;;;;;101.47;33.58;;;10.00;99.90;;;;;;4994880;28;20077;-86
2023/01/07 03:48:11;;;;;;;108.38;35.80;;;10.00;99.90;;;;;;4994942;28;20107;-86
2023/01/07 03:50:36;;;;;;;107.65;34.13;;;10.20;99.90;;;;;;4994778;28;20447;-86
2023/01/07 03:53:02;;;;;;;96.70;34.50;;;10.10;99.90;;;;;;4994636;28;20046;-86
2023/01/07 03:55:28;;;;;;;97.07;33.05;;;10.10;99.90;;;;;;4994943;28;20521;-85
2023/01/07 03:57:55;;;;;;;93.28;33.45;;;10.00;99.90;;;;;;4994661;28;20367;-86
2023/01/07 04:00:21;;;;;;;94.65;31.80;;;10.10;99.90;;;;;;4994672;28;20042;-86
2023/01/07 04:02:46;;;;;;;92.25;31.55;;;10.00;99.90;;;;;;4994263;28;20054;-85
2023/01/07 04:05:12;;;;;;;95.10;31.45;;;10.10;99.90;;;;;;4994384;28;20042;-86
2023/01/07 04:07:38;;;;;;;89.50;31.58;;;10.20;99.90;;;;;;4994414;28;20050;-86
2023/01/07 04:10:05;;;;;;;91.40;33.00;;;10.20;99.90;;;;;;4994325;28;20042;-85
2023/01/07 04:12:31;;;;;;;84.63;31.35;;;10.00;99.90;;;;;;4994241;28;20046;-85
2023/01/07 04:14:57;;;;;;;93.78;33.53;;;10.10;99.90;;;;;;4994633;28;20097;-85
2023/01/07 04:17:22;;;;;;;87.10;33.90;;;10.00;99.90;;;;;;4994481;28;20050;-85
2023/01/07 04:19:48;;;;;;;93.40;33.60;;;10.10;99.90;;;;;;4994120;28;20129;-86
2023/01/07 04:22:13;;;;;;;90.95;31.50;;;10.10;99.90;;;;;;4994279;28;20042;-86
2023/01/07 04:24:39;;;;;;;86.22;33.03;;;10.10;99.90;;;;;;4993962;28;20054;-85
2023/01/07 04:27:05;;;;;;;97.53;35.95;;;10.10;99.90;;;;;;4994337;28;20145;-86
2023/01/07 04:29:31;;;;;;;90.10;34.65;;;10.10;99.90;;;;;;4994107;28;20129;-86
2023/01/07 04:31:57;;;;;;;93.15;32.95;;;10.20;99.90;;;;;;4995206;28;20108;-86
2023/01/07 04:34:23;;;;;;;77.85;30.73;;;10.20;99.90;;;;;;4994104;28;20486;-86
2023/01/07 04:36:48;;;;;;;91.75;32.80;;;10.10;99.90;;;;;;4994103;28;20077;-85
2023/01/07 04:39:15;;;;;;;86.68;31.02;;;10.00;99.90;;;;;;4993801;28;20475;-86
2023/01/07 04:41:40;;;;;;;90.15;34.45;;;10.20;99.90;;;;;;4994196;28;20042;-86
2023/01/07 04:44:06;;;;;;;86.65;33.72;;;10.10;99.90;;;;;;4993779;28;20474;-86
2023/01/07 04:46:32;;;;;;;89.35;33.63;;;10.00;99.90;;;;;;4993600;28;20636;-85
2023/01/07 04:48:57;;;;;;;87.65;30.67;;;10.00;99.90;;;;;;4993836;28;20074;-85
2023/01/07 04:51:23;;;;;;;92.25;34.28;;;10.00;99.90;;;;;;4993670;28;20050;-86
2023/01/07 04:53:49;;;;;;;94.60;35.22;;;10.00;99.90;;;;;;4993851;28;20173;-86
2023/01/07 04:56:14;;;;;;;85.07;32.17;;;9.90;99.90;;;;;;4993606;28;20493;-86
2023/01/07 04:58:40;;;;;;;100.65;34.72;;;9.90;99.90;;;;;;4992931;28;20050;-86
2023/01/07 05:01:06;;;;;;;100.43;35.42;;;9.90;99.90;;;;;;4994827;28;20053;-86
2023/01/07 05:03:35;;;;;;;101.68;38.25;;;9.90;99.90;;;;;;4993280;28;20504;-86
2023/01/07 05:06:00;;;;;;;95.50;35.55;;;10.00;99.90;;;;;;4993614;28;20516;-86
2023/01/07 05:08:26;;;;;;;93.18;32.55;;;10.00;99.90;;;;;;4993811;28;20046;-86
2023/01/07 05:10:52;;;;;;;95.75;32.65;;;10.00;99.90;;;;;;4993281;28;20053;-86
2023/01/07 05:13:20;;;;;;;101.50;35.13;;;9.90;99.90;;;;;;4993534;28;20057;-86
2023/01/07 05:15:47;;;;;;;99.88;34.53;;;9.80;99.90;;;;;;4993250;28;20039;-86
2023/01/07 05:18:12;;;;;;;88.07;30.48;;;9.90;99.90;;;;;;4993388;28;20551;-86
2023/01/07 05:20:38;;;;;;;105.72;35.38;;;9.80;99.90;;;;;;4994382;28;20129;-85
2023/01/07 05:23:05;;;;;;;104.45;35.55;;;9.90;99.90;;;;;;4992939;28;20057;-85
2023/01/07 05:25:31;;;;;;;107.63;35.53;;;9.70;99.90;;;;;;4993391;28;20082;-85
2023/01/07 05:27:57;;;;;;;88.10;30.05;;;9.70;99.90;;;;;;4994440;28;20046;-85
2023/01/07 05:30:23;;;;;;;108.70;35.50;;;9.70;99.90;;;;;;4993046;28;20042;-85
2023/01/07 05:32:48;;;;;;;97.60;36.50;;;9.90;99.90;;;;;;4993190;28;20046;-85
2023/01/07 05:35:14;;;;;;;104.45;37.95;;;9.80;99.90;;;;;;4994371;28;20125;-86
2023/01/07 05:37:40;;;;;;;101.60;35.42;;;9.90;99.90;;;;;;4993203;28;20482;-86
2023/01/07 05:40:06;;;;;;;94.13;32.58;;;9.80;99.90;;;;;;4993278;28;20483;-86
2023/01/07 05:42:32;;;;;;;103.22;33.53;;;9.90;99.90;;;;;;4993258;28;20096;-86
2023/01/07 05:44:57;;;;;;;102.65;34.92;;;9.80;99.90;;;;;;4992968;28;20042;-86
2023/01/07 05:47:23;;;;;;;101.90;37.30;;;9.90;99.90;;;;;;4992806;28;20069;-86
2023/01/07 05:49:49;;;;;;;102.32;34.35;;;9.70;99.90;;;;;;4993108;28;20042;-86
2023/01/07 05:52:14;;;;;;;112.78;35.55;;;9.80;99.90;;;;;;4992693;28;20050;-85
2023/01/07 05:54:40;;;;;;;108.78;37.92;;;9.90;99.90;;;;;;4992863;28;20042;-86
2023/01/07 05:57:05;;;;;;;94.82;32.38;;;9.80;99.90;;;;;;4993159;28;20098;-85
2023/01/07 05:59:33;;;;;;;95.25;32.58;;;9.80;99.90;;;;;;4993127;28;20049;-85
2023/01/07 06:02:00;;;;;;;95.55;32.88;;;9.70;99.90;;;;;;4992690;28;20052;-86
2023/01/07 06:04:25;;;;;;;103.05;33.58;;;9.80;99.90;;;;;;4992740;28;20050;-85
2023/01/07 06:06:51;;;;;;;106.32;35.50;;;9.80;99.90;;;;;;4992770;28;20038;-85
2023/01/07 06:09:17;;;;;;;98.28;34.78;;;9.70;99.90;;;;;;4993536;28;20042;-86
2023/01/07 06:11:43;;;;;;;99.32;33.55;;;9.60;99.90;;;;;;4996675;28;20042;-86
2023/01/07 06:14:09;;;;;;;100.88;33.20;;;9.70;99.90;;;;;;4997123;28;20692;-86
2023/01/07 06:16:34;;;;;;;85.63;31.98;;;9.60;99.90;;;;;;4996380;28;20057;-86
2023/01/07 06:19:00;;;;;;;95.85;33.95;;;9.60;99.90;;;;;;4996334;28;20085;-86
2023/01/07 06:21:26;;;;;;;90.10;31.15;;;9.70;99.90;;;;;;4996552;28;20046;-86
2023/01/07 06:23:51;;;;;;;95.03;33.25;;;9.50;99.90;;;;;;4996316;28;20051;-86
2023/01/07 06:26:17;;;;;;;96.35;34.03;;;9.60;99.90;;;;;;4997476;28;20047;-86
2023/01/07 06:28:43;;;;;;;87.68;31.00;;;9.60;99.90;;;;;;4996636;28;20421;-86
2023/01/07 06:31:10;;;;;;;108.22;35.70;;;9.50;99.90;;;;;;4996113;28;20550;-86
2023/01/07 06:33:36;;;;;;;100.60;34.13;;;9.50;99.90;;;;;;4996175;28;20494;-86
2023/01/07 06:36:03;;;;;;;87.38;31.23;;;9.50;99.90;;;;;;4996471;28;20495;-85
2023/01/07 06:38:29;;;;;;;89.18;31.92;;;9.50;99.90;;;;;;4996141;28;20093;-86
2023/01/07 06:40:57;;;;;;;94.38;32.42;;;9.60;99.90;;;;;;4996122;28;20042;-86
2023/01/07 06:43:23;;;;;;;97.40;33.22;;;9.60;99.90;;;;;;4995990;28;20065;-85
2023/01/07 06:45:49;;;;;;;100.97;32.72;;;9.50;99.90;;;;;;4996133;28;20042;-85
2023/01/07 06:48:15;;;;;;;87.38;29.60;;;9.60;99.90;;;;;;4995939;28;20050;-86
2023/01/07 06:50:41;;;;;;;84.65;30.80;;;9.60;99.90;;;;;;4995883;28;20057;-86
2023/01/07 06:53:06;;;;;;;85.95;30.83;;;9.40;99.90;;;;;;4995894;28;20162;-86
2023/01/07 06:55:32;;;;;;;85.25;29.10;;;9.50;99.90;;;;;;4996183;28;20082;-85
2023/01/07 06:57:58;;;;;;;89.90;31.00;;;9.50;99.90;;;;;;4995946;28;20054;-85
2023/01/07 07:00:23;;;;;;;85.35;30.25;;;9.50;99.90;;;;;;4995859;28;20039;-85
2023/01/07 07:02:49;;;;;;;83.63;30.25;;;9.50;99.90;;;;;;4995855;28;20187;-87
2023/01/07 07:05:15;;;;;;;91.97;31.58;;;9.40;99.90;;;;;;4995592;28;20038;-86
2023/01/07 07:07:40;;;;;;;80.70;29.20;;;9.40;99.90;;;;;;4996956;28;20053;-86
2023/01/07 07:10:07;;;;;;;87.00;30.90;;;9.40;99.90;;;;;;4995533;28;20133;-86
2023/01/07 07:12:37;;;;;;;81.82;31.15;;;9.40;99.90;;;;;;4996577;28;20487;-86
2023/01/07 07:15:04;;;;;;;88.25;32.95;;;9.50;99.90;;;;;;4996862;28;20132;-86
2023/01/07 07:17:30;;;;;;;72.22;27.33;;;9.50;99.90;;;;;;4995411;28;20046;-86
2023/01/07 07:19:56;;;;;;;80.28;27.02;;;9.40;99.90;;;;;;4995595;28;20034;-86
2023/01/07 07:22:21;;;;;;;88.57;30.55;;;9.40;99.90;;;;;;4994456;28;20078;-86
2023/01/07 07:24:47;;;;;;;85.13;28.48;;;9.30;99.90;;;;;;4995160;28;20144;-86
2023/01/07 07:27:13;;;;;;;83.70;30.15;;;9.50;99.90;;;;;;4996301;28;20483;-86
2023/01/07 07:29:39;;;;;;;79.85;29.15;;;9.50;99.90;;;;;;4995071;28;20045;-86
2023/01/07 07:32:04;;;;;;;82.43;29.45;;;9.50;99.90;;;;;;4995137;28;20074;-86
2023/01/07 07:34:30;;;;;;;75.75;28.63;;;9.40;99.90;;;;;;4994934;28;20092;-86
2023/01/07 07:36:56;;;;;;;81.60;30.98;;;9.40;99.90;;;;;;4996296;28;20050;-86
2023/01/07 07:39:21;;;;;;;79.20;28.13;;;9.40;99.90;;;;;;4995316;28;20132;-86
2023/01/07 07:41:47;;;;;;;76.80;27.52;;;9.50;99.90;;;;;;4994855;28;20167;-86
2023/01/07 07:44:13;;;;;;;65.32;26.00;;;9.50;99.90;;;;;;4994796;28;20077;-85
2023/01/07 07:46:38;;;;;;;71.30;27.40;;;9.40;99.90;;;;;;4994720;28;20052;-86
2023/01/07 07:49:04;;;;;;;73.72;26.55;;;9.40;99.90;;;;;;4994799;28;20046;-85
2023/01/07 07:51:31;;;;;;;78.88;29.25;;;9.40;99.90;;;;;;4993638;28;20053;-86
2023/01/07 07:53:56;;;;;;;81.22;31.65;;;9.40;99.90;;;;;;4994739;28;20057;-85
2023/01/07 07:56:22;;;;;;;78.60;28.25;;;9.50;99.90;;;;;;4994736;28;20398;-85
2023/01/07 07:58:48;;;;;;;71.53;28.77;;;9.50;99.90;;;;;;4994804;28;20402;-85
2023/01/07 08:01:14;;;;;;;79.10;27.80;;;9.50;99.90;;;;;;4994686;28;20058;-86
2023/01/07 08:03:39;;;;;;;70.35;27.33;;;9.40;99.90;;;;;;4994401;28;20042;-85
2023/01/07 08:06:05;;;;;;;71.90;26.30;;;9.50;99.90;;;;;;4994370;28;20057;-85
2023/01/07 08:08:32;;;;;;;70.05;28.30;;;9.50;99.90;;;;;;4994385;28;20050;-87
2023/01/07 08:10:57;;;;;;;64.50;26.02;;;9.40;99.90;;;;;;5000913;28;20045;-85
2023/01/07 08:13:24;;;;;;;76.25;27.90;;;9.50;99.90;;;;;;4998007;28;20054;-85
2023/01/07 08:15:50;;;;;;;75.68;26.85;;;9.40;99.90;;;;;;4995225;28;20046;-85
2023/01/07 08:18:17;;;;;;;65.18;27.25;;;9.40;99.90;;;;;;4993874;28;20045;-85
2023/01/07 08:20:43;;;;;;;70.80;26.27;;;9.40;99.90;;;;;;4993817;28;20407;-85
2023/01/07 08:23:09;;;;;;;61.88;25.38;;;9.30;99.90;;;;;;4993844;28;20494;-89
2023/01/07 08:25:36;;;;;;;65.13;26.75;;;9.40;99.90;;;;;;4994423;28;20051;-80
2023/01/07 08:28:02;;;;;;;62.38;25.05;;;9.30;99.90;;;;;;4995217;28;20050;-86
2023/01/07 08:30:29;;;;;;;61.03;26.95;;;9.40;99.90;;;;;;4993741;28;20426;-85
2023/01/07 08:32:56;;;;;;;59.22;23.63;;;9.30;99.90;;;;;;4994100;28;20046;-85
2023/01/07 08:35:22;;;;;;;63.55;24.98;;;9.30;99.90;;;;;;4993680;28;20085;-85
2023/01/07 08:37:48;;;;;;;70.30;27.25;;;9.40;99.90;;;;;;4994789;28;20086;-84
2023/01/07 08:40:14;;;;;;;61.33;25.05;;;9.50;99.90;;;;;;4993872;28;20066;-84
2023/01/07 08:42:40;;;;;;;53.95;20.88;;;9.40;99.90;;;;;;4993777;28;20050;-84
2023/01/07 08:45:07;;;;;;;54.92;24.90;;;9.50;99.90;;;;;;4993778;28;20053;-89
2023/01/07 08:47:33;;;;;;;53.30;22.05;;;9.60;99.90;;;;;;4993643;28;20520;-84
2023/01/07 08:49:59;;;;;;;55.08;22.83;;;9.60;99.90;;;;;;4993301;28;20058;-83
2023/01/07 08:52:25;;;;;;;55.03;23.02;;;9.60;99.90;;;;;;4994276;28;20042;-84
2023/01/07 08:54:51;;;;;;;54.40;21.70;;;9.60;99.90;;;;;;4993244;28;20193;-83
2023/01/07 08:57:18;;;;;;;50.83;21.92;;;9.60;99.90;;;;;;4993851;28;20054;-83
2023/01/07 08:59:43;;;;;;;50.58;21.85;;;9.60;99.90;;;;;;4993203;28;20184;-83
2023/01/07 09:02:14;;;;;;;47.78;19.55;;;9.60;99.90;;;;;;4993289;28;20125;-83
2023/01/07 09:04:40;;;;;;;49.72;21.00;;;9.50;99.90;;;;;;4993066;28;20146;-83
2023/01/07 09:07:05;;;;;;;43.95;19.40;;;9.50;99.90;;;;;;4992981;28;20050;-84
2023/01/07 09:09:31;;;;;;;41.15;18.15;;;9.50;99.90;;;;;;4993309;28;20059;-89
2023/01/07 09:11:57;;;;;;;44.92;17.85;;;9.50;99.90;;;;;;4994270;28;20050;-88
2023/01/07 09:14:22;;;;;;;45.00;17.88;;;9.50;99.90;;;;;;4994173;28;20046;-91
2023/01/07 09:16:48;;;;;;;43.78;18.20;;;9.50;99.90;;;;;;4993071;28;20036;-90
2023/01/07 09:19:14;;;;;;;47.75;18.95;;;9.40;99.90;;;;;;4992870;28;20050;-85
2023/01/07 09:21:40;;;;;;;43.95;17.67;;;9.50;99.90;;;;;;4992967;28;20140;-86
2023/01/07 09:24:06;;;;;;;46.25;17.98;;;9.60;99.90;;;;;;4992718;28;20521;-86
2023/01/07 09:26:34;;;;;;;37.78;17.75;;;9.70;99.90;;;;;;4992997;28;20046;-88
2023/01/07 09:28:59;;;;;;;34.03;14.68;;;9.70;99.90;;;;;;4992671;28;20042;-86
2023/01/07 09:31:25;;;;;;;43.67;17.60;;;9.60;99.90;;;;;;4992776;28;20042;-87
2023/01/07 09:33:51;;;;;;;36.58;15.95;;;9.70;99.90;;;;;;4992912;28;20469;-86
2023/01/07 09:36:16;;;;;;;39.95;16.40;;;9.60;99.90;;;;;;4992738;28;20038;-87
2023/01/07 09:38:42;;;;;;;32.97;15.73;;;9.80;99.90;;;;;;4992917;28;20046;-87
2023/01/07 09:41:27;;;;;;;34.83;14.55;;;9.70;99.90;;;;;;4992655;28;20474;-86
2023/01/07 09:44:04;;;;;;;34.22;13.90;;;9.80;99.90;;;;;;4992308;28;20057;-87
2023/01/07 09:46:31;;;;;;;30.85;13.57;;;9.70;99.90;;;;;;4992614;28;20077;-87
2023/01/07 09:49:00;;;;;;;31.63;13.98;;;9.80;99.90;;;;;;4992776;28;20061;-86
2023/01/07 09:51:39;;;;;;;30.40;13.95;;;9.70;99.90;;;;;;4995884;28;20045;-86
2023/01/07 09:54:30;;;;;;;35.63;14.13;;;9.80;99.90;;;;;;5003824;28;20046;-86
2023/01/07 09:56:56;;;;;;;28.60;12.70;;;9.70;99.90;;;;;;5011161;28;20052;-86
2023/01/07 09:59:22;;;;;;;25.35;12.18;;;9.60;99.90;;;;;;5012337;28;20128;-86
2023/01/07 10:01:57;;;;;;;26.25;12.57;;;9.60;99.90;;;;;;5012044;28;20552;-86
2023/01/07 10:04:43;;;;;;;30.20;13.38;;;9.70;99.90;;;;;;5012049;28;20121;-86
2023/01/07 10:07:26;;;;;;;25.50;11.82;;;9.80;99.90;;;;;;5007485;28;20044;-86
2023/01/07 10:10:13;;;;;;;28.10;14.77;;;9.70;99.90;;;;;;4992685;28;20046;-84
2023/01/07 10:12:51;;;;;;;28.05;13.82;;;9.70;99.90;;;;;;4992880;28;20133;-84
2023/01/07 10:15:52;;;;;;;32.63;13.65;;;9.70;99.90;;;;;;4992736;28;20046;-85
2023/01/07 10:18:57;;;;;;;32.08;13.00;;;9.80;99.90;;;;;;4992450;28;20129;-84
2023/01/07 10:21:28;;;;;;;30.48;11.63;;;9.70;99.90;;;;;;5009066;28;20043;-83
2023/01/07 10:24:02;;;;;;;21.77;10.48;;;9.90;99.90;;;;;;4992355;28;20074;-84
2023/01/07 10:26:36;;;;;;;22.67;10.15;;;9.80;99.90;;;;;;4992431;28;20404;-84
2023/01/07 10:29:10;;;;;;;21.38;9.63;;;9.80;99.90;;;;;;4992447;28;20402;-83
2023/01/07 10:31:36;;;;;;;24.45;11.07;;;9.90;99.90;;;;;;4993836;28;20117;-84
2023/01/07 10:34:05;;;;;;;23.17;10.13;;;10.00;99.90;;;;;;4992598;28;20046;-84
2023/01/07 10:36:37;;;;;;;25.50;11.10;;;10.00;99.90;;;;;;4992484;28;20081;-84
2023/01/07 10:39:24;;;;;;;29.20;11.48;;;10.00;99.90;;;;;;4993879;28;20051;-84
2023/01/07 10:42:11;;;;;;;19.88;9.77;;;10.00;99.90;;;;;;4992430;28;20053;-88
2023/01/07 10:45:01;;;;;;;22.35;9.55;;;10.00;99.90;;;;;;4992435;28;20133;-85
2023/01/07 10:47:57;;;;;;;23.10;8.65;;;10.10;99.90;;;;;;4992703;28;20049;-85
2023/01/07 10:51:02;;;;;;;19.13;8.52;;;10.10;99.90;;;;;;4993590;28;20438;-87
2023/01/07 10:53:36;;;;;;;20.48;8.90;;;10.00;99.90;;;;;;4992306;28;20537;-85
2023/01/07 10:56:04;;;;;;;22.33;9.80;;;10.00;99.90;;;;;;4992354;28;20042;-85
2023/01/07 10:58:38;;;;;;;18.15;8.75;;;10.00;99.90;;;;;;4995626;28;20042;-85
2023/01/07 11:01:04;;;;;;;18.55;8.43;;;10.00;99.90;;;;;;4996966;28;20398;-85
2023/01/07 11:03:32;;;;;;;19.23;7.57;;;10.00;99.90;;;;;;4995528;28;20054;-86
2023/01/07 11:06:04;;;;;;;18.30;7.68;;;10.00;99.90;;;;;;4995770;28;20046;-85
2023/01/07 11:08:41;;;;;;;19.92;8.15;;;10.00;99.90;;;;;;4996767;28;20082;-85
2023/01/07 11:11:19;;;;;;;17.85;7.80;;;10.10;99.90;;;;;;4995484;28;20049;-86
2023/01/07 11:14:14;;;;;;;15.38;6.90;;;10.00;99.90;;;;;;4995759;28;20050;-85
2023/01/07 11:16:46;;;;;;;15.70;7.88;;;10.10;99.90;;;;;;4987705;28;20073;-85
2023/01/07 11:19:12;;;;;;;16.10;7.50;;;10.00;99.90;;;;;;4996149;28;20038;-85
2023/01/07 11:21:43;;;;;;;20.80;7.30;;;10.00;99.90;;;;;;4995704;28;20046;-85
2023/01/07 11:24:18;;;;;;;14.50;6.80;;;10.10;99.90;;;;;;4995297;28;20054;-86
2023/01/07 11:26:44;;;;;;;12.68;6.68;;;10.20;99.90;;;;;;4995038;28;20536;-85
2023/01/07 11:29:22;;;;;;;16.63;6.40;;;10.20;99.90;;;;;;4995093;28;20528;-87
2023/01/07 11:31:57;;;;;;;15.73;6.57;;;10.40;99.90;;;;;;4994923;28;20060;-86
2023/01/07 11:34:33;;;;;;;14.32;6.22;;;10.50;99.90;;;;;;4995190;28;20046;-86
2023/01/07 11:36:59;;;;;;;15.48;6.28;;;10.50;99.90;;;;;;4995659;28;20125;-85
2023/01/07 11:39:31;;;;;;;25.38;7.78;;;10.60;99.90;;;;;;4994866;28;20520;-87
2023/01/07 11:42:37;;;;;;;15.35;6.55;;;10.60;99.90;;;;;;4994953;28;20124;-86
2023/01/07 11:44:46;;;;;;;13.50;6.13;;;10.60;99.90;;;;;;4994882;28;20050;-86
2023/01/07 11:47:19;;;;;;;13.60;5.80;;;10.70;99.90;;;;;;4994793;28;20092;-86
2023/01/07 11:49:45;;;;;;;11.10;5.20;;;10.70;99.90;;;;;;4994888;28;20573;-85
2023/01/07 11:52:26;;;;;;;15.38;5.30;;;10.70;99.90;;;;;;4994544;28;20097;-85
2023/01/07 11:55:01;;;;;;;11.70;5.20;;;10.80;99.90;;;;;;4994598;28;20046;-85
2023/01/07 11:57:26;;;;;;;11.70;4.82;;;10.70;99.90;;;;;;4994457;28;20516;-86
2023/01/07 12:00:27;;;;;;;13.88;5.25;;;10.70;99.90;;;;;;4994601;28;20550;-85
2023/01/07 12:03:05;;;;;;;12.73;5.32;;;10.60;99.90;;;;;;4963726;28;20058;-86
2023/01/07 12:05:37;;;;;;;11.63;4.80;;;10.50;99.90;;;;;;4993966;28;20054;-86
2023/01/07 12:08:05;;;;;;;11.32;4.93;;;10.50;99.90;;;;;;4993965;28;20056;-86
2023/01/07 12:10:38;;;;;;;11.23;5.72;;;10.60;99.90;;;;;;4994157;28;20038;-85
2023/01/07 12:13:15;;;;;;;10.73;4.80;;;10.60;99.90;;;;;;4994461;28;20439;-86
2023/01/07 12:16:06;;;;;;;8.88;4.40;;;10.60;99.90;;;;;;4994163;28;20034;-86
2023/01/07 12:18:54;;;;;;;11.40;4.90;;;10.50;99.90;;;;;;4994608;28;20050;-87
2023/01/07 12:21:45;;;;;;;9.70;5.05;;;10.50;99.90;;;;;;4994179;28;20141;-85
2023/01/07 12:24:57;;;;;;;9.63;4.70;;;10.50;99.90;;;;;;5000207;28;20490;-85
2023/01/07 12:27:46;;;;;;;12.13;4.68;;;10.50;99.90;;;;;;4948632;28;20517;-87
2023/01/07 12:30:31;;;;;;;17.17;6.07;;;10.50;99.90;;;;;;4952776;28;20095;-86
2023/01/07 12:33:00;;;;;;;13.93;6.15;;;10.40;99.90;;;;;;4993428;28;20050;-86
2023/01/07 12:35:35;;;;;;;9.65;5.10;;;10.40;99.90;;;;;;5005008;28;20096;-86
2023/01/07 12:38:24;;;;;;;11.10;4.75;;;10.40;99.90;;;;;;5014060;28;20068;-87
2023/01/07 12:40:55;;;;;;;11.20;4.50;;;10.40;99.90;;;;;;5013924;28;20057;-87
2023/01/07 12:43:35;;;;;;;12.52;4.40;;;10.50;99.90;;;;;;5013543;28;20096;-87
2023/01/07 12:46:03;;;;;;;10.80;4.85;;;10.50;99.90;;;;;;5014401;28;20046;-87
2023/01/07 12:48:35;;;;;;;8.50;4.18;;;10.50;99.90;;;;;;5014033;28;20056;-87